sensor_id;sensor_type;location;lat;lon;timestamp;temperature;humidity
33699;DHT22;20032;52.436;13.312;2024-03-29T00:00:15;9.50;99.90
33699;DHT22;20032;52.436;13.312;2024-03-29T00:02:41;9.50;99.90
33699;DHT22;20032;52.436;13.312;2024-03-29T00:05:06;9.60;99.90
33699;DHT22;20032;52.436;13.312;2024-03-29T00:07:32;9.60;99.90
33699;DHT22;20032;52.436;13.312;2024-03-29T00:09:58;9.60;99.90
33699;DHT22;20032;52.436;13.312;2024-03-29T00:12:23;9.70;99.90
33699;DHT22;20032;52.436;13.312;2024-03-29T00:14:48;9.80;99.90
33699;DHT22;20032;52.436;13.312;2024-03-29T00:17:16;9.90;99.90
33699;DHT22;20032;52.436;13.312;2024-03-29T00:19:43;9.90;99.90
33699;DHT22;20032;52.436;13.312;2024-03-29T00:22:09;10.00;99.90
33699;DHT22;20032;52.436;13.312;2024-03-29T00:24:34;9.90;99.90
33699;DHT22;20032;52.436;13.312;2024-03-29T00:27:00;9.90;99.90
33699;DHT22;20032;52.436;13.312;2024-03-29T00:29:25;9.70;99.90
33699;DHT22;20032;52.436;13.312;2024-03-29T00:31:52;9.50;99.90
33699;DHT22;20032;52.436;13.312;2024-03-29T00:34:17;9.40;99.90
33699;DHT22;20032;52.436;13.312;2024-03-29T00:36:43;9.20;99.90
33699;DHT22;20032;52.436;13.312;2024-03-29T00:39:08;9.10;99.90
33699;DHT22;20032;52.436;13.312;2024-03-29T00:41:36;8.90;99.90
33699;DHT22;20032;52.436;13.312;2024-03-29T00:44:02;8.90;99.90
33699;DHT22;20032;52.436;13.312;2024-03-29T00:46:28;8.80;99.90
33699;DHT22;20032;52.436;13.312;2024-03-29T00:48:53;8.80;99.90
33699;DHT22;20032;52.436;13.312;2024-03-29T00:51:19;8.80;99.90
33699;DHT22;20032;52.436;13.312;2024-03-29T00:53:45;8.70;99.90
33699;DHT22;20032;52.436;13.312;2024-03-29T00:56:10;8.70;99.90
33699;DHT22;20032;52.436;13.312;2024-03-29T00:58:36;8.60;99.90
33699;DHT22;20032;52.436;13.312;2024-03-29T01:01:01;8.50;99.90
33699;DHT22;20032;52.436;13.312;2024-03-29T01:03:27;8.40;99.90
33699;DHT22;20032;52.436;13.312;2024-03-29T01:05:54;8.40;99.90
33699;DHT22;20032;52.436;13.312;2024-03-29T01:08:19;8.40;99.90
33699;DHT22;20032;52.436;13.312;2024-03-29T01:10:46;8.50;99.90
33699;DHT22;20032;52.436;13.312;2024-03-29T01:13:11;8.40;99.90
33699;DHT22;20032;52.436;13.312;2024-03-29T01:15:37;8.30;99.90
33699;DHT22;20032;52.436;13.312;2024-03-29T01:18:03;8.30;99.90
33699;DHT22;20032;52.436;13.312;2024-03-29T01:20:29;8.20;99.90
33699;DHT22;20032;52.436;13.312;2024-03-29T01:22:55;8.20;99.90
33699;DHT22;20032;52.436;13.312;2024-03-29T01:25:20;8.20;99.90
33699;DHT22;20032;52.436;13.312;2024-03-29T01:27:46;8.20;99.90
33699;DHT22;20032;52.436;13.312;2024-03-29T01:30:12;8.20;99.90
33699;DHT22;20032;52.436;13.312;2024-03-29T01:32:37;8.20;99.90
33699;DHT22;20032;52.436;13.312;2024-03-29T01:35:04;8.10;99.90
33699;DHT22;20032;52.436;13.312;2024-03-29T01:37:29;8.00;99.90
33699;DHT22;20032;52.436;13.312;2024-03-29T01:39:56;8.10;99.90
33699;DHT22;20032;52.436;13.312;2024-03-29T01:42:21;8.10;99.90
33699;DHT22;20032;52.436;13.312;2024-03-29T01:44:47;8.10;99.90
33699;DHT22;20032;52.436;13.312;2024-03-29T01:47:12;8.00;99.90
33699;DHT22;20032;52.436;13.312;2024-03-29T01:49:40;7.90;99.90
33699;DHT22;20032;52.436;13.312;2024-03-29T01:52:06;7.90;99.90
33699;DHT22;20032;52.436;13.312;2024-03-29T01:54:32;7.90;99.90
33699;DHT22;20032;52.436;13.312;2024-03-29T01:56:58;7.90;99.90
33699;DHT22;20032;52.436;13.312;2024-03-29T01:59:24;7.90;99.90
33699;DHT22;20032;52.436;13.312;2024-03-29T02:01:50;7.90;99.90
33699;DHT22;20032;52.436;13.312;2024-03-29T02:04:15;7.90;99.90
33699;DHT22;20032;52.436;13.312;2024-03-29T02:06:41;7.90;99.90
33699;DHT22;20032;52.436;13.312;2024-03-29T02:09:07;7.90;99.90
33699;DHT22;20032;52.436;13.312;2024-03-29T02:11:34;7.80;99.90
33699;DHT22;20032;52.436;13.312;2024-03-29T02:13:59;7.80;99.90
33699;DHT22;20032;52.436;13.312;2024-03-29T02:16:25;7.90;99.90
33699;DHT22;20032;52.436;13.312;2024-03-29T02:18:50;7.80;99.90
33699;DHT22;20032;52.436;13.312;2024-03-29T02:21:18;7.70;99.90
33699;DHT22;20032;52.436;13.312;2024-03-29T02:23:44;7.70;99.90
33699;DHT22;20032;52.436;13.312;2024-03-29T02:26:12;7.70;99.90
33699;DHT22;20032;52.436;13.312;2024-03-29T02:28:37;7.80;99.90
33699;DHT22;20032;52.436;13.312;2024-03-29T02:31:04;7.80;99.90
33699;DHT22;20032;52.436;13.312;2024-03-29T02:33:29;7.80;99.90
33699;DHT22;20032;52.436;13.312;2024-03-29T02:35:55;7.80;99.90
33699;DHT22;20032;52.436;13.312;2024-03-29T02:38:20;7.70;99.90
33699;DHT22;20032;52.436;13.312;2024-03-29T02:40:46;7.70;99.90
33699;DHT22;20032;52.436;13.312;2024-03-29T02:43:11;7.70;99.90
33699;DHT22;20032;52.436;13.312;2024-03-29T02:45:37;7.70;99.90
33699;DHT22;20032;52.436;13.312;2024-03-29T02:48:03;7.60;99.90
33699;DHT22;20032;52.436;13.312;2024-03-29T02:50:29;7.70;99.90
33699;DHT22;20032;52.436;13.312;2024-03-29T02:52:54;7.80;99.90
33699;DHT22;20032;52.436;13.312;2024-03-29T02:55:20;7.70;99.90
33699;DHT22;20032;52.436;13.312;2024-03-29T02:57:45;7.70;99.90
33699;DHT22;20032;52.436;13.312;2024-03-29T03:00:13;7.60;99.90
33699;DHT22;20032;52.436;13.312;2024-03-29T03:02:39;7.50;99.90
33699;DHT22;20032;52.436;13.312;2024-03-29T03:05:06;7.40;99.90
33699;DHT22;20032;52.436;13.312;2024-03-29T03:07:32;7.40;99.90
33699;DHT22;20032;52.436;13.312;2024-03-29T03:10:17;7.30;99.90
33699;DHT22;20032;52.436;13.312;2024-03-29T03:13:03;7.30;99.90
33699;DHT22;20032;52.436;13.312;2024-03-29T03:15:28;7.30;99.90
33699;DHT22;20032;52.436;13.312;2024-03-29T03:17:54;7.30;99.90
33699;DHT22;20032;52.436;13.312;2024-03-29T03:20:19;7.30;99.90
33699;DHT22;20032;52.436;13.312;2024-03-29T03:22:45;7.30;99.90
33699;DHT22;20032;52.436;13.312;2024-03-29T03:25:10;7.30;99.90
33699;DHT22;20032;52.436;13.312;2024-03-29T03:27:36;7.30;99.90
33699;DHT22;20032;52.436;13.312;2024-03-29T03:30:02;7.30;99.90
33699;DHT22;20032;52.436;13.312;2024-03-29T03:32:27;7.30;99.90
33699;DHT22;20032;52.436;13.312;2024-03-29T03:34:53;7.30;99.90
33699;DHT22;20032;52.436;13.312;2024-03-29T03:37:18;7.20;99.90
33699;DHT22;20032;52.436;13.312;2024-03-29T03:39:44;7.10;99.90
33699;DHT22;20032;52.436;13.312;2024-03-29T03:42:09;7.10;99.90
33699;DHT22;20032;52.436;13.312;2024-03-29T03:44:35;7.10;99.90
33699;DHT22;20032;52.436;13.312;2024-03-29T03:47:01;7.10;99.90
33699;DHT22;20032;52.436;13.312;2024-03-29T03:49:26;7.10;99.90
33699;DHT22;20032;52.436;13.312;2024-03-29T03:51:51;7.10;99.90
33699;DHT22;20032;52.436;13.312;2024-03-29T03:54:17;7.10;99.90
33699;DHT22;20032;52.436;13.312;2024-03-29T03:56:42;7.10;99.90
33699;DHT22;20032;52.436;13.312;2024-03-29T03:59:08;6.90;99.90
33699;DHT22;20032;52.436;13.312;2024-03-29T04:01:34;7.00;99.90
33699;DHT22;20032;52.436;13.312;2024-03-29T04:04:00;7.00;99.90
33699;DHT22;20032;52.436;13.312;2024-03-29T04:06:25;7.10;99.90
33699;DHT22;20032;52.436;13.312;2024-03-29T04:08:51;7.10;99.90
33699;DHT22;20032;52.436;13.312;2024-03-29T04:11:16;7.10;99.90
33699;DHT22;20032;52.436;13.312;2024-03-29T04:13:42;7.00;99.90
33699;DHT22;20032;52.436;13.312;2024-03-29T04:16:08;7.00;99.90
33699;DHT22;20032;52.436;13.312;2024-03-29T04:18:34;7.00;99.90
33699;DHT22;20032;52.436;13.312;2024-03-29T04:21:00;6.90;99.90
33699;DHT22;20032;52.436;13.312;2024-03-29T04:23:26;7.00;99.90
33699;DHT22;20032;52.436;13.312;2024-03-29T04:25:53;6.90;99.90
33699;DHT22;20032;52.436;13.312;2024-03-29T04:28:18;7.00;99.90
33699;DHT22;20032;52.436;13.312;2024-03-29T04:30:53;7.00;99.90
33699;DHT22;20032;52.436;13.312;2024-03-29T04:33:18;7.00;99.90
33699;DHT22;20032;52.436;13.312;2024-03-29T04:36:01;7.00;99.90
33699;DHT22;20032;52.436;13.312;2024-03-29T04:38:27;7.00;99.90
33699;DHT22;20032;52.436;13.312;2024-03-29T04:40:54;7.00;99.90
33699;DHT22;20032;52.436;13.312;2024-03-29T04:43:22;6.90;99.90
33699;DHT22;20032;52.436;13.312;2024-03-29T04:45:47;6.90;99.90
33699;DHT22;20032;52.436;13.312;2024-03-29T04:48:13;6.80;99.90
33699;DHT22;20032;52.436;13.312;2024-03-29T04:50:39;6.80;99.90
33699;DHT22;20032;52.436;13.312;2024-03-29T04:53:05;6.70;99.90
33699;DHT22;20032;52.436;13.312;2024-03-29T04:55:31;6.70;99.90
33699;DHT22;20032;52.436;13.312;2024-03-29T04:57:56;6.70;99.90
33699;DHT22;20032;52.436;13.312;2024-03-29T05:00:22;6.80;99.90
33699;DHT22;20032;52.436;13.312;2024-03-29T05:02:48;6.80;99.90
33699;DHT22;20032;52.436;13.312;2024-03-29T05:05:13;6.70;99.90
33699;DHT22;20032;52.436;13.312;2024-03-29T05:07:39;6.70;99.90
33699;DHT22;20032;52.436;13.312;2024-03-29T05:10:05;6.70;99.90
33699;DHT22;20032;52.436;13.312;2024-03-29T05:12:32;6.70;99.90
33699;DHT22;20032;52.436;13.312;2024-03-29T05:14:58;6.70;99.90
33699;DHT22;20032;52.436;13.312;2024-03-29T05:17:23;6.80;99.90
33699;DHT22;20032;52.436;13.312;2024-03-29T05:19:52;6.90;99.90
33699;DHT22;20032;52.436;13.312;2024-03-29T05:22:18;6.90;99.90
33699;DHT22;20032;52.436;13.312;2024-03-29T05:24:43;6.90;99.90
33699;DHT22;20032;52.436;13.312;2024-03-29T05:27:09;6.90;99.90
33699;DHT22;20032;52.436;13.312;2024-03-29T05:29:34;6.90;99.90
33699;DHT22;20032;52.436;13.312;2024-03-29T05:32:04;6.90;99.90
33699;DHT22;20032;52.436;13.312;2024-03-29T05:34:30;6.90;99.90
33699;DHT22;20032;52.436;13.312;2024-03-29T05:36:55;6.90;99.90
33699;DHT22;20032;52.436;13.312;2024-03-29T05:39:21;6.90;99.90
33699;DHT22;20032;52.436;13.312;2024-03-29T05:41:46;6.80;99.90
33699;DHT22;20032;52.436;13.312;2024-03-29T05:44:12;6.70;99.90
33699;DHT22;20032;52.436;13.312;2024-03-29T05:46:38;6.70;99.90
33699;DHT22;20032;52.436;13.312;2024-03-29T05:49:05;6.80;99.90
33699;DHT22;20032;52.436;13.312;2024-03-29T05:51:31;6.80;99.90
33699;DHT22;20032;52.436;13.312;2024-03-29T05:53:56;6.70;99.90
33699;DHT22;20032;52.436;13.312;2024-03-29T05:56:22;6.80;99.90
33699;DHT22;20032;52.436;13.312;2024-03-29T05:58:47;6.90;99.90
33699;DHT22;20032;52.436;13.312;2024-03-29T06:01:13;6.80;99.90
33699;DHT22;20032;52.436;13.312;2024-03-29T06:03:38;6.80;99.90
33699;DHT22;20032;52.436;13.312;2024-03-29T06:06:04;6.90;99.90
33699;DHT22;20032;52.436;13.312;2024-03-29T06:08:30;6.90;99.90
33699;DHT22;20032;52.436;13.312;2024-03-29T06:10:55;7.00;99.90
33699;DHT22;20032;52.436;13.312;2024-03-29T06:13:22;7.00;99.90
33699;DHT22;20032;52.436;13.312;2024-03-29T06:16:07;7.00;99.90
33699;DHT22;20032;52.436;13.312;2024-03-29T06:18:53;7.10;99.90
33699;DHT22;20032;52.436;13.312;2024-03-29T06:21:18;7.30;99.90
33699;DHT22;20032;52.436;13.312;2024-03-29T06:23:44;7.30;99.90
33699;DHT22;20032;52.436;13.312;2024-03-29T06:26:09;7.40;99.90
33699;DHT22;20032;52.436;13.312;2024-03-29T06:28:34;7.50;99.90
33699;DHT22;20032;52.436;13.312;2024-03-29T06:31:00;7.70;99.90
33699;DHT22;20032;52.436;13.312;2024-03-29T06:33:27;7.80;99.90
33699;DHT22;20032;52.436;13.312;2024-03-29T06:35:54;7.90;99.90
33699;DHT22;20032;52.436;13.312;2024-03-29T06:38:21;8.00;99.90
33699;DHT22;20032;52.436;13.312;2024-03-29T06:40:47;8.10;99.90
33699;DHT22;20032;52.436;13.312;2024-03-29T06:43:13;8.00;99.90
33699;DHT22;20032;52.436;13.312;2024-03-29T06:45:42;8.00;99.90
33699;DHT22;20032;52.436;13.312;2024-03-29T06:48:09;8.20;99.90
33699;DHT22;20032;52.436;13.312;2024-03-29T06:50:34;8.20;99.90
33699;DHT22;20032;52.436;13.312;2024-03-29T06:53:00;8.20;99.90
33699;DHT22;20032;52.436;13.312;2024-03-29T06:55:26;8.30;99.90
33699;DHT22;20032;52.436;13.312;2024-03-29T06:57:52;8.50;99.90
33699;DHT22;20032;52.436;13.312;2024-03-29T07:00:18;8.50;99.90
33699;DHT22;20032;52.436;13.312;2024-03-29T07:02:43;8.60;99.90
33699;DHT22;20032;52.436;13.312;2024-03-29T07:05:11;8.70;99.90
33699;DHT22;20032;52.436;13.312;2024-03-29T07:07:37;8.80;99.90
33699;DHT22;20032;52.436;13.312;2024-03-29T07:10:03;8.70;99.90
33699;DHT22;20032;52.436;13.312;2024-03-29T07:12:29;8.80;99.90
33699;DHT22;20032;52.436;13.312;2024-03-29T07:14:54;8.90;99.90
33699;DHT22;20032;52.436;13.312;2024-03-29T07:17:20;8.90;99.90
33699;DHT22;20032;52.436;13.312;2024-03-29T07:19:45;9.00;99.90
33699;DHT22;20032;52.436;13.312;2024-03-29T07:22:10;9.00;99.90
33699;DHT22;20032;52.436;13.312;2024-03-29T07:24:36;9.10;99.90
33699;DHT22;20032;52.436;13.312;2024-03-29T07:27:01;9.10;99.90
33699;DHT22;20032;52.436;13.312;2024-03-29T07:29:27;9.20;99.90
33699;DHT22;20032;52.436;13.312;2024-03-29T07:31:52;9.20;99.90
33699;DHT22;20032;52.436;13.312;2024-03-29T07:34:19;9.30;99.90
33699;DHT22;20032;52.436;13.312;2024-03-29T07:36:45;9.30;99.90
33699;DHT22;20032;52.436;13.312;2024-03-29T07:39:10;9.30;99.90
33699;DHT22;20032;52.436;13.312;2024-03-29T07:41:36;9.40;99.90
33699;DHT22;20032;52.436;13.312;2024-03-29T07:44:02;9.50;99.90
33699;DHT22;20032;52.436;13.312;2024-03-29T07:46:31;9.60;99.90
33699;DHT22;20032;52.436;13.312;2024-03-29T07:48:57;9.60;99.90
33699;DHT22;20032;52.436;13.312;2024-03-29T07:51:22;9.60;99.90
33699;DHT22;20032;52.436;13.312;2024-03-29T07:53:48;9.70;99.90
33699;DHT22;20032;52.436;13.312;2024-03-29T07:56:16;9.80;99.90
33699;DHT22;20032;52.436;13.312;2024-03-29T07:58:42;9.90;99.90
33699;DHT22;20032;52.436;13.312;2024-03-29T08:01:08;9.90;99.90
33699;DHT22;20032;52.436;13.312;2024-03-29T08:03:33;9.90;99.90
33699;DHT22;20032;52.436;13.312;2024-03-29T08:06:01;9.90;99.90
33699;DHT22;20032;52.436;13.312;2024-03-29T08:08:31;9.90;99.90
33699;DHT22;20032;52.436;13.312;2024-03-29T08:10:57;9.90;99.90
33699;DHT22;20032;52.436;13.312;2024-03-29T08:13:24;9.90;99.90
33699;DHT22;20032;52.436;13.312;2024-03-29T08:15:57;9.90;99.90
33699;DHT22;20032;52.436;13.312;2024-03-29T08:18:24;9.90;99.90
33699;DHT22;20032;52.436;13.312;2024-03-29T08:20:49;10.00;99.90
33699;DHT22;20032;52.436;13.312;2024-03-29T08:23:15;10.00;99.90
33699;DHT22;20032;52.436;13.312;2024-03-29T08:25:40;10.00;99.90
33699;DHT22;20032;52.436;13.312;2024-03-29T08:28:05;10.10;99.90
33699;DHT22;20032;52.436;13.312;2024-03-29T08:30:31;10.20;99.90
33699;DHT22;20032;52.436;13.312;2024-03-29T08:33:01;10.30;99.90
33699;DHT22;20032;52.436;13.312;2024-03-29T08:35:28;10.30;99.90
33699;DHT22;20032;52.436;13.312;2024-03-29T08:37:54;10.40;99.90
33699;DHT22;20032;52.436;13.312;2024-03-29T08:40:19;10.50;99.90
33699;DHT22;20032;52.436;13.312;2024-03-29T08:42:45;10.50;99.90
33699;DHT22;20032;52.436;13.312;2024-03-29T08:45:10;10.50;99.90
33699;DHT22;20032;52.436;13.312;2024-03-29T08:47:37;10.70;99.90
33699;DHT22;20032;52.436;13.312;2024-03-29T08:50:04;10.80;99.90
33699;DHT22;20032;52.436;13.312;2024-03-29T08:52:30;10.90;99.90
33699;DHT22;20032;52.436;13.312;2024-03-29T08:54:56;11.00;99.90
33699;DHT22;20032;52.436;13.312;2024-03-29T08:57:21;10.90;99.90
33699;DHT22;20032;52.436;13.312;2024-03-29T08:59:47;11.00;99.90
33699;DHT22;20032;52.436;13.312;2024-03-29T09:02:12;11.10;99.90
33699;DHT22;20032;52.436;13.312;2024-03-29T09:04:38;11.00;99.90
33699;DHT22;20032;52.436;13.312;2024-03-29T09:07:03;11.00;99.90
33699;DHT22;20032;52.436;13.312;2024-03-29T09:09:29;11.00;99.90
33699;DHT22;20032;52.436;13.312;2024-03-29T09:11:55;11.20;99.90
33699;DHT22;20032;52.436;13.312;2024-03-29T09:14:21;11.20;99.90
33699;DHT22;20032;52.436;13.312;2024-03-29T09:16:46;11.20;99.90
33699;DHT22;20032;52.436;13.312;2024-03-29T09:19:13;11.30;99.90
33699;DHT22;20032;52.436;13.312;2024-03-29T09:21:39;11.30;99.90
33699;DHT22;20032;52.436;13.312;2024-03-29T09:24:05;11.40;99.90
33699;DHT22;20032;52.436;13.312;2024-03-29T09:26:31;11.40;99.90
33699;DHT22;20032;52.436;13.312;2024-03-29T09:28:56;11.40;99.90
33699;DHT22;20032;52.436;13.312;2024-03-29T09:31:22;11.40;99.90
33699;DHT22;20032;52.436;13.312;2024-03-29T09:33:47;11.40;99.90
33699;DHT22;20032;52.436;13.312;2024-03-29T09:36:19;11.50;99.90
33699;DHT22;20032;52.436;13.312;2024-03-29T09:38:45;11.50;99.90
33699;DHT22;20032;52.436;13.312;2024-03-29T09:41:16;11.60;99.90
33699;DHT22;20032;52.436;13.312;2024-03-29T09:43:41;11.70;99.90
33699;DHT22;20032;52.436;13.312;2024-03-29T09:46:08;11.80;99.90
33699;DHT22;20032;52.436;13.312;2024-03-29T09:48:37;11.80;99.90
33699;DHT22;20032;52.436;13.312;2024-03-29T09:51:06;11.90;99.90
33699;DHT22;20032;52.436;13.312;2024-03-29T09:53:36;11.80;99.90
33699;DHT22;20032;52.436;13.312;2024-03-29T09:56:04;11.90;99.90
33699;DHT22;20032;52.436;13.312;2024-03-29T09:58:31;11.90;99.90
33699;DHT22;20032;52.436;13.312;2024-03-29T10:00:57;11.90;99.90
33699;DHT22;20032;52.436;13.312;2024-03-29T10:03:30;12.00;99.90
33699;DHT22;20032;52.436;13.312;2024-03-29T10:05:57;12.10;99.90
33699;DHT22;20032;52.436;13.312;2024-03-29T10:08:27;12.10;99.90
33699;DHT22;20032;52.436;13.312;2024-03-29T10:10:54;12.00;99.90
33699;DHT22;20032;52.436;13.312;2024-03-29T10:13:20;12.00;99.90
33699;DHT22;20032;52.436;13.312;2024-03-29T10:15:52;12.00;99.90
33699;DHT22;20032;52.436;13.312;2024-03-29T10:18:21;11.90;99.90
33699;DHT22;20032;52.436;13.312;2024-03-29T10:20:47;11.80;99.90
33699;DHT22;20032;52.436;13.312;2024-03-29T10:23:12;11.80;99.90
33699;DHT22;20032;52.436;13.312;2024-03-29T10:25:39;11.70;99.90
33699;DHT22;20032;52.436;13.312;2024-03-29T10:28:05;11.70;99.90
33699;DHT22;20032;52.436;13.312;2024-03-29T10:30:31;11.60;99.90
33699;DHT22;20032;52.436;13.312;2024-03-29T10:32:56;11.60;99.90
33699;DHT22;20032;52.436;13.312;2024-03-29T10:35:22;11.50;99.90
33699;DHT22;20032;52.436;13.312;2024-03-29T10:37:49;11.50;99.90
33699;DHT22;20032;52.436;13.312;2024-03-29T10:40:16;11.50;99.90
33699;DHT22;20032;52.436;13.312;2024-03-29T10:42:45;11.50;99.90
33699;DHT22;20032;52.436;13.312;2024-03-29T10:45:14;11.50;99.90
33699;DHT22;20032;52.436;13.312;2024-03-29T10:47:41;11.50;99.90
33699;DHT22;20032;52.436;13.312;2024-03-29T10:50:11;11.50;99.90
33699;DHT22;20032;52.436;13.312;2024-03-29T10:52:39;11.40;99.90
33699;DHT22;20032;52.436;13.312;2024-03-29T10:55:08;11.40;99.90
33699;DHT22;20032;52.436;13.312;2024-03-29T10:57:34;11.50;99.90
33699;DHT22;20032;52.436;13.312;2024-03-29T11:02:48;11.60;99.90
33699;DHT22;20032;52.436;13.312;2024-03-29T11:05:15;11.60;99.90
33699;DHT22;20032;52.436;13.312;2024-03-29T11:07:42;11.70;99.90
33699;DHT22;20032;52.436;13.312;2024-03-29T11:10:13;11.90;99.90
33699;DHT22;20032;52.436;13.312;2024-03-29T11:12:50;12.10;99.90
33699;DHT22;20032;52.436;13.312;2024-03-29T11:15:29;12.00;99.90
33699;DHT22;20032;52.436;13.312;2024-03-29T11:17:56;12.20;99.90
33699;DHT22;20032;52.436;13.312;2024-03-29T11:20:24;12.20;99.90
33699;DHT22;20032;52.436;13.312;2024-03-29T11:22:59;12.30;99.90
33699;DHT22;20032;52.436;13.312;2024-03-29T11:25:24;12.60;99.90
33699;DHT22;20032;52.436;13.312;2024-03-29T11:27:50;12.60;99.90
33699;DHT22;20032;52.436;13.312;2024-03-29T11:30:17;12.50;99.90
33699;DHT22;20032;52.436;13.312;2024-03-29T11:32:43;12.60;99.90
33699;DHT22;20032;52.436;13.312;2024-03-29T11:35:16;12.50;99.90
33699;DHT22;20032;52.436;13.312;2024-03-29T11:37:42;12.40;99.90
33699;DHT22;20032;52.436;13.312;2024-03-29T11:40:11;12.40;99.90
33699;DHT22;20032;52.436;13.312;2024-03-29T11:45:05;12.40;99.90
33699;DHT22;20032;52.436;13.312;2024-03-29T11:47:33;12.50;99.90
33699;DHT22;20032;52.436;13.312;2024-03-29T11:50:00;12.40;99.90
33699;DHT22;20032;52.436;13.312;2024-03-29T11:52:26;12.30;99.90
33699;DHT22;20032;52.436;13.312;2024-03-29T11:54:54;12.20;99.90
33699;DHT22;20032;52.436;13.312;2024-03-29T11:57:19;12.30;99.90
33699;DHT22;20032;52.436;13.312;2024-03-29T11:59:45;12.20;99.90
33699;DHT22;20032;52.436;13.312;2024-03-29T12:02:13;12.20;99.90
33699;DHT22;20032;52.436;13.312;2024-03-29T12:04:40;12.20;99.90
33699;DHT22;20032;52.436;13.312;2024-03-29T12:07:06;12.20;99.90
33699;DHT22;20032;52.436;13.312;2024-03-29T12:09:32;12.20;99.90
33699;DHT22;20032;52.436;13.312;2024-03-29T12:11:57;12.30;99.90
33699;DHT22;20032;52.436;13.312;2024-03-29T12:14:25;12.30;99.90
33699;DHT22;20032;52.436;13.312;2024-03-29T12:16:52;12.30;99.90
33699;DHT22;20032;52.436;13.312;2024-03-29T12:19:26;12.40;99.90
33699;DHT22;20032;52.436;13.312;2024-03-29T12:21:53;12.60;99.90
33699;DHT22;20032;52.436;13.312;2024-03-29T12:24:19;12.60;99.90
33699;DHT22;20032;52.436;13.312;2024-03-29T12:26:45;12.80;99.90
33699;DHT22;20032;52.436;13.312;2024-03-29T12:29:11;12.80;99.90
33699;DHT22;20032;52.436;13.312;2024-03-29T12:31:36;12.80;99.90
33699;DHT22;20032;52.436;13.312;2024-03-29T12:34:03;13.00;99.90
33699;DHT22;20032;52.436;13.312;2024-03-29T12:36:31;13.10;99.90
33699;DHT22;20032;52.436;13.312;2024-03-29T12:38:58;13.30;99.90
33699;DHT22;20032;52.436;13.312;2024-03-29T12:41:29;13.50;99.90
33699;DHT22;20032;52.436;13.312;2024-03-29T12:43:54;13.80;99.90
33699;DHT22;20032;52.436;13.312;2024-03-29T12:46:20;14.20;99.90
33699;DHT22;20032;52.436;13.312;2024-03-29T12:48:45;14.60;99.90
33699;DHT22;20032;52.436;13.312;2024-03-29T12:51:11;14.70;99.90
33699;DHT22;20032;52.436;13.312;2024-03-29T12:53:38;14.70;99.90
33699;DHT22;20032;52.436;13.312;2024-03-29T12:56:04;14.60;99.90
33699;DHT22;20032;52.436;13.312;2024-03-29T12:58:30;14.50;99.90
33699;DHT22;20032;52.436;13.312;2024-03-29T13:00:55;14.40;99.90
33699;DHT22;20032;52.436;13.312;2024-03-29T13:03:21;14.50;99.90
33699;DHT22;20032;52.436;13.312;2024-03-29T13:05:46;14.70;99.90
33699;DHT22;20032;52.436;13.312;2024-03-29T13:08:13;14.90;99.90
33699;DHT22;20032;52.436;13.312;2024-03-29T13:10:42;14.80;99.90
33699;DHT22;20032;52.436;13.312;2024-03-29T13:13:08;14.80;99.90
33699;DHT22;20032;52.436;13.312;2024-03-29T13:15:35;14.60;99.90
33699;DHT22;20032;52.436;13.312;2024-03-29T13:18:01;14.50;99.90
33699;DHT22;20032;52.436;13.312;2024-03-29T13:20:27;14.50;99.90
33699;DHT22;20032;52.436;13.312;2024-03-29T13:22:53;14.50;99.90
33699;DHT22;20032;52.436;13.312;2024-03-29T13:25:21;14.50;99.90
33699;DHT22;20032;52.436;13.312;2024-03-29T13:27:49;14.60;99.90
33699;DHT22;20032;52.436;13.312;2024-03-29T13:30:14;14.70;99.90
33699;DHT22;20032;52.436;13.312;2024-03-29T13:32:41;14.80;99.90
33699;DHT22;20032;52.436;13.312;2024-03-29T13:35:08;14.90;99.90
33699;DHT22;20032;52.436;13.312;2024-03-29T13:37:38;15.10;99.90
33699;DHT22;20032;52.436;13.312;2024-03-29T13:40:06;15.20;99.90
33699;DHT22;20032;52.436;13.312;2024-03-29T13:42:32;15.60;99.90
33699;DHT22;20032;52.436;13.312;2024-03-29T13:44:57;16.30;99.90
33699;DHT22;20032;52.436;13.312;2024-03-29T13:47:23;16.90;99.90
33699;DHT22;20032;52.436;13.312;2024-03-29T13:49:48;16.60;99.90
33699;DHT22;20032;52.436;13.312;2024-03-29T13:52:18;16.40;99.90
33699;DHT22;20032;52.436;13.312;2024-03-29T13:54:43;16.40;99.90
33699;DHT22;20032;52.436;13.312;2024-03-29T13:57:10;16.20;99.90
33699;DHT22;20032;52.436;13.312;2024-03-29T13:59:35;16.20;99.90
33699;DHT22;20032;52.436;13.312;2024-03-29T14:02:01;16.10;99.90
33699;DHT22;20032;52.436;13.312;2024-03-29T14:04:27;16.10;99.90
33699;DHT22;20032;52.436;13.312;2024-03-29T14:06:52;16.20;99.90
33699;DHT22;20032;52.436;13.312;2024-03-29T14:09:18;17.00;99.90
33699;DHT22;20032;52.436;13.312;2024-03-29T14:11:43;17.60;99.90
33699;DHT22;20032;52.436;13.312;2024-03-29T14:14:09;18.00;99.90
33699;DHT22;20032;52.436;13.312;2024-03-29T14:16:37;17.80;99.90
33699;DHT22;20032;52.436;13.312;2024-03-29T14:19:03;17.50;99.90
33699;DHT22;20032;52.436;13.312;2024-03-29T14:21:29;17.30;99.90
33699;DHT22;20032;52.436;13.312;2024-03-29T14:23:54;17.60;99.90
33699;DHT22;20032;52.436;13.312;2024-03-29T14:26:20;17.60;99.90
33699;DHT22;20032;52.436;13.312;2024-03-29T14:28:45;17.40;99.90
33699;DHT22;20032;52.436;13.312;2024-03-29T14:31:11;16.80;99.90
33699;DHT22;20032;52.436;13.312;2024-03-29T14:33:36;16.50;99.90
33699;DHT22;20032;52.436;13.312;2024-03-29T14:36:03;16.40;99.90
33699;DHT22;20032;52.436;13.312;2024-03-29T14:38:29;16.50;99.90
33699;DHT22;20032;52.436;13.312;2024-03-29T14:40:55;16.70;99.90
33699;DHT22;20032;52.436;13.312;2024-03-29T14:43:21;16.90;99.90
33699;DHT22;20032;52.436;13.312;2024-03-29T14:45:47;17.40;99.90
33699;DHT22;20032;52.436;13.312;2024-03-29T14:48:15;18.10;99.90
33699;DHT22;20032;52.436;13.312;2024-03-29T14:50:41;18.30;99.90
33699;DHT22;20032;52.436;13.312;2024-03-29T14:53:07;17.90;99.90
33699;DHT22;20032;52.436;13.312;2024-03-29T14:55:32;17.60;99.90
33699;DHT22;20032;52.436;13.312;2024-03-29T14:57:58;17.90;99.90
33699;DHT22;20032;52.436;13.312;2024-03-29T15:00:24;17.70;99.90
33699;DHT22;20032;52.436;13.312;2024-03-29T15:02:50;17.40;99.90
33699;DHT22;20032;52.436;13.312;2024-03-29T15:05:15;17.10;99.90
33699;DHT22;20032;52.436;13.312;2024-03-29T15:07:41;17.10;99.90
33699;DHT22;20032;52.436;13.312;2024-03-29T15:10:07;17.10;99.90
33699;DHT22;20032;52.436;13.312;2024-03-29T15:12:36;16.80;99.90
33699;DHT22;20032;52.436;13.312;2024-03-29T15:15:02;16.50;99.90
33699;DHT22;20032;52.436;13.312;2024-03-29T15:17:28;16.20;99.90
33699;DHT22;20032;52.436;13.312;2024-03-29T15:19:53;16.00;99.90
33699;DHT22;20032;52.436;13.312;2024-03-29T15:22:19;15.90;99.90
33699;DHT22;20032;52.436;13.312;2024-03-29T15:24:44;15.90;99.90